createdAt,value
2022-12-18T00:01:33.018Z,0.46
2022-12-18T00:03:59.389Z,0.51
2022-12-18T00:06:25.723Z,0.50
2022-12-18T00:08:52.012Z,0.56
2022-12-18T00:11:18.284Z,0.60
2022-12-18T00:13:44.535Z,0.57
2022-12-18T00:16:10.890Z,0.57
2022-12-18T00:18:37.581Z,0.51
2022-12-18T00:21:04.048Z,0.51
2022-12-18T00:23:30.318Z,0.53
2022-12-18T00:25:56.580Z,0.43
2022-12-18T00:28:22.879Z,0.42
2022-12-18T00:30:49.144Z,0.39
2022-12-18T00:33:15.404Z,0.36
2022-12-18T00:35:41.694Z,0.48
2022-12-18T00:38:08.076Z,0.49
2022-12-18T00:40:34.327Z,0.54
2022-12-18T00:43:00.574Z,0.59
2022-12-18T00:45:26.867Z,0.56
2022-12-18T00:47:53.261Z,0.48
2022-12-18T00:50:19.511Z,0.45
2022-12-18T00:52:45.749Z,0.49
2022-12-18T00:55:11.993Z,0.45
2022-12-18T00:57:38.272Z,0.39
2022-12-18T01:00:04.873Z,0.38
2022-12-18T01:02:31.208Z,0.48
2022-12-18T01:04:57.559Z,0.46
2022-12-18T01:07:23.838Z,0.49
2022-12-18T01:09:50.097Z,0.57
2022-12-18T01:12:16.361Z,0.51
2022-12-18T01:14:42.617Z,0.50
2022-12-18T01:17:08.858Z,0.41
2022-12-18T01:19:35.128Z,0.50
2022-12-18T01:22:01.388Z,0.54
2022-12-18T01:24:27.682Z,0.62
2022-12-18T01:26:53.935Z,0.58
2022-12-18T01:29:20.377Z,0.57
2022-12-18T01:31:46.766Z,0.58
2022-12-18T01:34:13.169Z,0.57
2022-12-18T01:36:39.452Z,0.58
2022-12-18T01:39:05.716Z,0.55
2022-12-18T01:41:31.951Z,0.38
2022-12-18T01:43:58.302Z,0.47
2022-12-18T01:46:24.604Z,0.49
2022-12-18T01:48:50.858Z,0.52
2022-12-18T01:51:17.113Z,0.62
2022-12-18T01:53:43.376Z,0.60
2022-12-18T01:56:10.248Z,0.58
2022-12-18T01:58:36.535Z,0.65
2022-12-18T02:01:02.806Z,0.65
2022-12-18T02:03:29.168Z,0.70
2022-12-18T02:05:55.569Z,0.74
2022-12-18T02:08:21.871Z,0.76
2022-12-18T02:10:48.156Z,0.73
2022-12-18T02:13:14.430Z,0.78
2022-12-18T02:15:40.687Z,0.82
2022-12-18T02:18:06.960Z,0.88
2022-12-18T02:20:33.222Z,0.89
2022-12-18T02:22:59.495Z,0.86
2022-12-18T02:25:25.760Z,0.83
2022-12-18T02:27:52.201Z,0.86
2022-12-18T02:30:18.701Z,0.86
2022-12-18T02:32:44.961Z,0.84
2022-12-18T02:35:11.241Z,0.87
2022-12-18T02:37:37.495Z,0.90
2022-12-18T02:40:03.741Z,0.89
2022-12-18T02:42:30.002Z,0.89
2022-12-18T02:44:56.264Z,0.94
2022-12-18T02:47:22.513Z,0.98
2022-12-18T02:49:48.793Z,1.00
2022-12-18T02:52:15.040Z,0.99
2022-12-18T02:54:41.313Z,1.01
2022-12-18T02:57:07.576Z,1.03
2022-12-18T02:59:33.855Z,1.00
2022-12-18T03:02:00.497Z,0.97
2022-12-18T03:04:26.887Z,0.91
2022-12-18T03:06:53.140Z,0.85
2022-12-18T03:09:19.390Z,0.87
2022-12-18T03:11:45.642Z,0.79
2022-12-18T03:14:11.903Z,0.77
2022-12-18T03:16:38.185Z,0.79
2022-12-18T03:19:04.482Z,0.72
2022-12-18T03:21:30.747Z,0.67
2022-12-18T03:23:57.010Z,0.66
2022-12-18T03:26:23.288Z,0.65
2022-12-18T03:28:49.572Z,0.64
2022-12-18T03:31:15.917Z,0.57
2022-12-18T03:33:42.609Z,0.62
2022-12-18T03:36:09.362Z,0.64
2022-12-18T03:38:35.611Z,0.75
2022-12-18T03:41:01.879Z,0.70
2022-12-18T03:43:28.187Z,0.73
2022-12-18T03:45:54.459Z,0.69
2022-12-18T03:48:20.713Z,0.67
2022-12-18T03:50:46.980Z,0.66
2022-12-18T03:53:13.246Z,0.65
2022-12-18T03:55:39.501Z,0.67
2022-12-18T03:58:05.759Z,0.63
2022-12-18T04:00:32.020Z,0.59
2022-12-18T04:02:58.272Z,0.65
2022-12-18T04:05:24.521Z,0.64
2022-12-18T04:07:50.817Z,0.70
2022-12-18T04:10:17.087Z,0.73
2022-12-18T04:12:43.396Z,0.68
2022-12-18T04:15:09.656Z,0.66
2022-12-18T04:17:35.920Z,0.57
2022-12-18T04:20:02.203Z,0.60
2022-12-18T04:22:28.481Z,0.54
2022-12-18T04:24:54.757Z,0.61
2022-12-18T04:27:21.013Z,0.63
2022-12-18T04:29:47.284Z,0.63
2022-12-18T04:32:13.564Z,0.68
2022-12-18T04:34:39.834Z,0.65
2022-12-18T04:37:06.109Z,0.75
2022-12-18T04:39:32.367Z,0.80
2022-12-18T04:41:58.618Z,0.83
2022-12-18T04:44:24.893Z,0.84
2022-12-18T04:46:51.196Z,0.92
2022-12-18T04:49:17.529Z,0.96
2022-12-18T04:51:43.782Z,0.98
2022-12-18T04:54:10.028Z,0.98
2022-12-18T04:56:36.291Z,0.99
2022-12-18T04:59:02.559Z,1.02
2022-12-18T05:01:34.374Z,1.06
2022-12-18T05:04:01.235Z,1.06
2022-12-18T05:06:27.510Z,1.07
2022-12-18T05:08:53.780Z,1.06
2022-12-18T05:11:20.058Z,1.08
2022-12-18T05:13:46.370Z,1.11
2022-12-18T05:16:12.691Z,1.07
2022-12-18T05:18:39.004Z,1.11
2022-12-18T05:21:05.258Z,1.12
2022-12-18T05:23:31.521Z,1.13
2022-12-18T05:25:57.789Z,1.15
2022-12-18T05:28:24.091Z,1.13
2022-12-18T05:30:50.378Z,1.16
2022-12-18T05:33:16.664Z,1.15
2022-12-18T05:35:42.942Z,1.13
2022-12-18T05:38:09.220Z,1.14
2022-12-18T05:40:35.491Z,1.09
2022-12-18T05:43:01.783Z,1.13
2022-12-18T05:45:28.042Z,1.15
2022-12-18T05:47:54.316Z,1.16
2022-12-18T05:50:21.245Z,1.14
2022-12-18T05:52:47.501Z,1.14
2022-12-18T05:55:13.748Z,1.10
2022-12-18T05:57:40.005Z,1.10
2022-12-18T06:00:06.278Z,1.09
2022-12-18T06:02:32.594Z,1.11
2022-12-18T06:04:58.888Z,1.12
2022-12-18T06:07:25.141Z,1.19
2022-12-18T06:09:51.415Z,1.19
2022-12-18T06:12:17.694Z,1.13
2022-12-18T06:14:43.952Z,1.13
2022-12-18T06:17:10.210Z,1.13
2022-12-18T06:19:36.480Z,1.13
2022-12-18T06:22:02.727Z,1.18
2022-12-18T06:24:28.994Z,1.21
2022-12-18T06:26:55.518Z,1.20
2022-12-18T06:29:21.763Z,1.22
2022-12-18T06:31:48.083Z,1.19
2022-12-18T06:34:14.446Z,1.22
2022-12-18T06:36:40.739Z,1.21
2022-12-18T06:39:06.983Z,1.23
2022-12-18T06:41:33.653Z,1.24
2022-12-18T06:44:00.294Z,1.25
2022-12-18T06:46:26.677Z,1.27
2022-12-18T06:48:52.963Z,1.33
2022-12-18T06:51:19.222Z,1.31
2022-12-18T06:53:45.501Z,1.31
2022-12-18T06:56:11.776Z,1.31
2022-12-18T06:58:38.044Z,1.29
2022-12-18T07:01:04.362Z,1.28
2022-12-18T07:03:30.645Z,1.29
2022-12-18T07:05:56.904Z,1.30
2022-12-18T07:08:23.162Z,1.34
2022-12-18T07:10:52.904Z,1.34
2022-12-18T07:13:22.271Z,1.32
2022-12-18T07:15:48.556Z,1.33
2022-12-18T07:18:14.827Z,1.33
2022-12-18T07:20:41.618Z,1.34
2022-12-18T07:23:07.901Z,1.33
2022-12-18T07:25:34.177Z,1.36
2022-12-18T07:28:00.432Z,1.37
2022-12-18T07:30:26.674Z,1.34
2022-12-18T07:32:52.930Z,1.34
2022-12-18T07:35:23.373Z,1.31
2022-12-18T07:37:51.145Z,1.31
2022-12-18T07:40:17.413Z,1.32
2022-12-18T07:42:43.700Z,1.32
2022-12-18T07:45:09.965Z,1.30
2022-12-18T07:47:36.252Z,1.34
2022-12-18T07:50:02.502Z,1.33
2022-12-18T07:52:28.756Z,1.33
2022-12-18T07:54:55.036Z,1.31
2022-12-18T07:57:48.809Z,1.29
2022-12-18T08:00:07.548Z,1.32
2022-12-18T08:02:33.989Z,1.33
2022-12-18T08:05:01.021Z,1.37
2022-12-18T08:07:27.310Z,1.34
2022-12-18T08:09:53.578Z,1.33
2022-12-18T08:12:19.970Z,1.34
2022-12-18T08:14:46.216Z,1.31
2022-12-18T08:17:12.469Z,1.34
2022-12-18T08:19:38.769Z,1.29
2022-12-18T08:22:05.042Z,1.32
2022-12-18T08:24:31.325Z,1.31
2022-12-18T08:27:27.974Z,1.34
2022-12-18T08:29:43.829Z,1.36
2022-12-18T08:32:10.103Z,1.29
2022-12-18T08:34:36.368Z,1.31
2022-12-18T08:37:02.641Z,1.37
2022-12-18T08:39:28.914Z,1.28
2022-12-18T08:41:55.223Z,1.29
2022-12-18T08:44:21.504Z,1.23
2022-12-18T08:46:47.770Z,1.18
2022-12-18T08:49:14.107Z,1.22
2022-12-18T08:51:40.350Z,1.08
2022-12-18T08:54:06.730Z,1.05
2022-12-18T08:56:33.067Z,1.13
2022-12-18T08:58:59.323Z,1.15
2022-12-18T09:01:25.974Z,1.22
2022-12-18T09:03:52.453Z,1.13
2022-12-18T09:06:19.176Z,1.11
2022-12-18T09:08:45.713Z,1.08
2022-12-18T09:11:12.010Z,1.09
2022-12-18T09:13:38.585Z,1.20
2022-12-18T09:16:05.131Z,1.20
2022-12-18T09:18:31.377Z,1.18
2022-12-18T09:24:08.864Z,1.22
2022-12-18T09:26:35.469Z,1.28
2022-12-18T09:29:01.777Z,1.34
2022-12-18T09:31:28.050Z,1.26
2022-12-18T09:33:54.462Z,1.36
2022-12-18T09:36:20.729Z,1.37
2022-12-18T09:38:48.089Z,1.32
2022-12-18T09:41:14.353Z,1.18
2022-12-18T09:43:40.619Z,1.17
2022-12-18T09:46:06.922Z,1.29
2022-12-18T09:48:33.192Z,1.33
2022-12-18T09:50:59.452Z,1.35
2022-12-18T09:53:25.771Z,1.41
2022-12-18T09:55:52.041Z,1.47
2022-12-18T09:58:18.312Z,1.50
2022-12-18T10:00:44.578Z,1.53
2022-12-18T10:03:12.188Z,1.61
2022-12-18T10:05:38.572Z,1.68
2022-12-18T10:08:04.846Z,1.67
2022-12-18T10:10:31.105Z,1.71
2022-12-18T10:13:04.058Z,1.68
2022-12-18T10:15:30.932Z,1.74
2022-12-18T10:17:57.297Z,1.82
2022-12-18T10:20:23.577Z,1.89
2022-12-18T10:22:49.872Z,1.97
2022-12-18T10:25:16.121Z,2.03
2022-12-18T10:27:42.382Z,2.06
2022-12-18T10:30:10.432Z,2.12
2022-12-18T10:32:36.735Z,2.16
2022-12-18T10:35:03.029Z,2.13
2022-12-18T10:37:29.279Z,2.14
2022-12-18T10:39:55.552Z,2.21
2022-12-18T10:42:21.805Z,2.24
2022-12-18T10:44:48.067Z,2.14
2022-12-18T10:47:14.422Z,2.18
2022-12-18T10:49:40.808Z,2.14
2022-12-18T10:52:07.098Z,2.17
2022-12-18T10:54:33.526Z,2.20
2022-12-18T10:56:59.787Z,2.22
2022-12-18T10:59:26.054Z,2.26
2022-12-18T11:01:52.451Z,2.31
2022-12-18T11:04:18.831Z,2.36
2022-12-18T11:06:45.095Z,2.40
2022-12-18T11:09:12.848Z,2.45
2022-12-18T11:11:40.833Z,2.44
2022-12-18T11:14:07.102Z,2.40
2022-12-18T11:16:33.460Z,2.37
2022-12-18T11:18:59.720Z,2.40
2022-12-18T11:21:25.976Z,2.43
2022-12-18T11:23:52.266Z,2.50
2022-12-18T11:26:18.546Z,2.46
2022-12-18T11:28:45.291Z,2.57
2022-12-18T11:31:12.112Z,2.61
2022-12-18T11:33:38.389Z,2.62
2022-12-18T11:36:04.660Z,2.62
2022-12-18T11:38:30.948Z,2.65
2022-12-18T11:40:57.264Z,2.67
2022-12-18T11:43:23.552Z,2.70
2022-12-18T11:45:49.879Z,2.74
2022-12-18T11:48:16.153Z,2.78
2022-12-18T11:50:42.427Z,2.81
2022-12-18T11:53:08.694Z,2.73
2022-12-18T11:55:34.975Z,2.75
2022-12-18T11:58:01.669Z,2.77
2022-12-18T12:00:27.959Z,2.75
2022-12-18T12:02:54.235Z,2.74
2022-12-18T12:05:20.542Z,2.72
2022-12-18T12:07:46.813Z,2.69
2022-12-18T12:10:13.069Z,2.70
2022-12-18T12:12:41.824Z,2.72
2022-12-18T12:15:11.501Z,2.72
2022-12-18T12:17:37.763Z,2.73
2022-12-18T12:20:04.022Z,2.81
2022-12-18T12:22:30.275Z,2.92
2022-12-18T12:24:56.529Z,2.98
2022-12-18T12:27:22.785Z,3.02
2022-12-18T12:29:49.050Z,3.08
2022-12-18T12:32:15.351Z,3.12
2022-12-18T12:34:41.645Z,3.09
2022-12-18T12:37:07.906Z,3.14
2022-12-18T12:39:34.176Z,3.17
2022-12-18T12:42:00.437Z,3.28
2022-12-18T12:44:26.703Z,3.37
2022-12-18T12:46:52.965Z,3.44
2022-12-18T12:49:19.297Z,3.55
2022-12-18T12:51:45.808Z,3.68
2022-12-18T12:54:13.326Z,3.73
2022-12-18T12:56:39.579Z,3.71
2022-12-18T12:59:05.847Z,3.70
2022-12-18T13:01:32.937Z,3.68
2022-12-18T13:04:00.149Z,3.72
2022-12-18T13:06:26.420Z,3.88
2022-12-18T13:08:52.694Z,3.98
2022-12-18T13:11:18.956Z,3.95
2022-12-18T13:13:46.443Z,3.93
2022-12-18T13:16:13.270Z,3.95
2022-12-18T13:18:39.952Z,4.01
2022-12-18T13:21:07.609Z,4.07
2022-12-18T13:23:33.885Z,4.15
2022-12-18T13:26:00.325Z,4.21
2022-12-18T13:28:26.706Z,4.27
2022-12-18T13:30:53.767Z,4.28
2022-12-18T13:33:23.415Z,4.35
2022-12-18T13:35:49.724Z,4.35
2022-12-18T13:38:16.142Z,4.37
2022-12-18T13:40:43.735Z,4.37
2022-12-18T13:43:10.322Z,4.37
2022-12-18T13:45:37.627Z,4.40
2022-12-18T13:48:03.996Z,4.45
2022-12-18T13:50:36.117Z,4.50
2022-12-18T13:53:02.720Z,4.58
2022-12-18T13:55:29.073Z,4.61
2022-12-18T13:57:55.334Z,4.62
2022-12-18T14:00:22.535Z,4.65
2022-12-18T14:02:49.095Z,4.67
2022-12-18T14:05:15.390Z,4.72
2022-12-18T14:07:41.881Z,4.76
2022-12-18T14:10:41.836Z,4.72
2022-12-18T14:12:56.353Z,4.82
2022-12-18T14:15:22.924Z,4.78
2022-12-18T14:17:49.294Z,4.67
2022-12-18T14:20:15.550Z,4.63
2022-12-18T14:22:41.815Z,4.56
2022-12-18T14:25:08.059Z,4.65
2022-12-18T14:27:34.336Z,4.64
2022-12-18T14:30:00.588Z,4.57
2022-12-18T14:32:26.837Z,4.46
2022-12-18T14:34:53.128Z,4.46
2022-12-18T14:37:19.401Z,4.48
2022-12-18T14:39:45.662Z,4.45
2022-12-18T14:42:11.922Z,4.37
2022-12-18T14:44:50.648Z,4.33
2022-12-18T14:47:24.415Z,4.28
2022-12-18T14:49:50.774Z,4.26
2022-12-18T14:52:17.124Z,4.17
2022-12-18T14:54:43.377Z,4.14
2022-12-18T14:57:09.641Z,4.17
2022-12-18T14:59:36.642Z,4.17
2022-12-18T15:02:03.128Z,4.11
2022-12-18T15:04:30.569Z,4.05
2022-12-18T15:06:56.819Z,3.97
2022-12-18T15:09:23.078Z,3.98
2022-12-18T15:11:49.392Z,3.91
2022-12-18T15:14:15.845Z,3.85
2022-12-18T15:16:46.142Z,3.84
2022-12-18T15:19:12.604Z,3.87
2022-12-18T15:21:38.879Z,3.80
2022-12-18T15:24:05.222Z,3.74
2022-12-18T15:26:31.471Z,3.71
2022-12-18T15:28:57.752Z,3.67
2022-12-18T15:31:24.112Z,3.64
2022-12-18T15:33:50.453Z,3.51
2022-12-18T15:36:16.716Z,3.50
2022-12-18T15:38:45.267Z,3.47
2022-12-18T15:41:14.200Z,3.43
2022-12-18T15:43:41.062Z,3.42
2022-12-18T15:46:07.746Z,3.34
2022-12-18T15:48:34.044Z,3.30
2022-12-18T15:51:00.322Z,3.24
2022-12-18T15:53:26.578Z,3.19
2022-12-18T15:55:56.542Z,3.25
2022-12-18T15:58:27.076Z,3.17
2022-12-18T16:00:53.343Z,3.16
2022-12-18T16:03:19.733Z,3.17
2022-12-18T16:05:46.161Z,3.18
2022-12-18T16:08:12.450Z,3.17
2022-12-18T16:10:38.720Z,3.12
2022-12-18T16:13:05.001Z,3.14
2022-12-18T16:15:31.307Z,3.12
2022-12-18T16:17:57.589Z,3.13
2022-12-18T16:20:23.858Z,3.09
2022-12-18T16:22:50.138Z,3.04
2022-12-18T16:25:16.404Z,3.06
2022-12-18T16:27:42.693Z,3.06
2022-12-18T16:30:10.346Z,3.04
2022-12-18T16:32:36.614Z,2.97
2022-12-18T16:35:02.904Z,2.95
2022-12-18T16:37:29.266Z,2.86
2022-12-18T16:39:55.565Z,2.86
2022-12-18T16:42:21.839Z,2.91
2022-12-18T16:44:48.138Z,2.91
2022-12-18T16:47:15.050Z,2.96
2022-12-18T16:49:41.787Z,2.94
2022-12-18T16:52:08.106Z,2.95
2022-12-18T16:54:34.360Z,2.94
2022-12-18T16:57:00.627Z,2.92
2022-12-18T16:59:26.983Z,2.86
2022-12-18T17:01:54.366Z,2.87
2022-12-18T17:04:20.722Z,2.84
2022-12-18T17:06:47.004Z,2.81
2022-12-18T17:09:13.302Z,2.80
2022-12-18T17:11:39.568Z,2.83
2022-12-18T17:14:05.907Z,2.81
2022-12-18T17:16:32.230Z,2.78
2022-12-18T17:18:59.795Z,2.78
2022-12-18T17:21:26.135Z,2.77
2022-12-18T17:23:52.410Z,2.78
2022-12-18T17:26:18.696Z,2.79
2022-12-18T17:28:45.026Z,2.80
2022-12-18T17:31:11.478Z,2.74
2022-12-18T17:33:38.210Z,2.38
2022-12-18T17:36:04.731Z,2.22
2022-12-18T17:38:30.994Z,2.12
2022-12-18T17:40:57.293Z,2.11
2022-12-18T17:43:23.545Z,2.18
2022-12-18T17:45:49.809Z,2.20
2022-12-18T17:48:16.077Z,2.23
2022-12-18T17:50:42.357Z,2.24
2022-12-18T17:53:08.633Z,2.30
2022-12-18T17:55:34.916Z,2.29
2022-12-18T17:58:01.247Z,2.29
2022-12-18T18:00:27.608Z,2.30
2022-12-18T18:02:54.059Z,2.30
2022-12-18T18:05:20.400Z,2.32
2022-12-18T18:07:47.870Z,2.18
2022-12-18T18:10:14.129Z,2.18
2022-12-18T18:12:40.379Z,2.15
2022-12-18T18:15:06.756Z,2.17
2022-12-18T18:17:33.019Z,2.16
2022-12-18T18:19:59.293Z,2.15
2022-12-18T18:22:25.569Z,2.08
2022-12-18T18:24:52.223Z,2.13
2022-12-18T18:27:18.498Z,2.17
2022-12-18T18:29:44.800Z,2.19
2022-12-18T18:32:11.046Z,2.19
2022-12-18T18:34:37.321Z,2.22
2022-12-18T18:37:03.948Z,2.23
2022-12-18T18:39:30.237Z,2.23
2022-12-18T18:41:56.502Z,2.24
2022-12-18T18:44:24.868Z,2.25
2022-12-18T18:46:52.523Z,2.28
2022-12-18T18:49:18.795Z,2.29
2022-12-18T18:51:45.081Z,2.28
2022-12-18T18:54:11.352Z,2.25
2022-12-18T18:59:25.027Z,2.24
2022-12-18T19:01:58.545Z,2.20
2022-12-18T19:04:24.942Z,2.14
2022-12-18T19:06:51.225Z,2.11
2022-12-18T19:09:18.072Z,2.10
2022-12-18T19:11:44.322Z,2.15
2022-12-18T19:14:10.724Z,2.17
2022-12-18T19:16:37.054Z,2.18
2022-12-18T19:19:03.581Z,2.19
2022-12-18T19:21:31.141Z,2.18
2022-12-18T19:23:59.695Z,2.23
2022-12-18T19:26:28.234Z,2.21
2022-12-18T19:28:55.048Z,2.19
2022-12-18T19:31:25.413Z,2.26
2022-12-18T19:33:53.426Z,2.18
2022-12-18T19:36:19.713Z,2.20
2022-12-18T19:38:46.148Z,2.21
2022-12-18T19:41:12.608Z,2.20
2022-12-18T19:43:40.144Z,2.05
2022-12-18T19:46:06.416Z,2.04
2022-12-18T19:48:32.751Z,2.05
2022-12-18T19:50:59.025Z,2.05
2022-12-18T19:53:25.401Z,2.09
2022-12-18T19:55:51.685Z,2.06
2022-12-18T19:58:17.932Z,2.00
2022-12-18T20:00:46.804Z,2.01
2022-12-18T20:03:24.259Z,1.99
2022-12-18T20:05:53.550Z,2.01
2022-12-18T20:08:19.806Z,1.98
2022-12-18T20:10:46.074Z,1.99
2022-12-18T20:13:12.421Z,2.00
2022-12-18T20:15:45.146Z,1.99
2022-12-18T20:18:11.841Z,2.03
2022-12-18T20:20:38.272Z,2.06
2022-12-18T20:23:04.563Z,2.06
2022-12-18T20:25:30.812Z,2.07
2022-12-18T20:27:57.069Z,2.06
2022-12-18T20:30:23.885Z,2.09
2022-12-18T20:32:50.148Z,2.12
2022-12-18T20:35:16.441Z,2.14
2022-12-18T20:37:46.085Z,2.13
2022-12-18T20:40:15.066Z,2.13
2022-12-18T20:42:41.342Z,2.15
2022-12-18T20:45:07.594Z,2.18
2022-12-18T20:47:33.842Z,2.16
2022-12-18T20:50:00.106Z,2.14
2022-12-18T20:52:26.423Z,2.12
2022-12-18T20:54:52.693Z,2.12
2022-12-18T20:57:18.962Z,2.14
2022-12-18T20:59:48.329Z,2.12
2022-12-18T21:02:14.998Z,2.09
2022-12-18T21:04:41.357Z,2.09
2022-12-18T21:07:07.631Z,2.08
2022-12-18T21:09:38.056Z,2.04
2022-12-18T21:12:04.862Z,2.09
2022-12-18T21:14:31.110Z,2.09
2022-12-18T21:16:57.442Z,2.11
2022-12-18T21:19:23.806Z,2.14
2022-12-18T21:21:50.106Z,2.18
2022-12-18T21:24:16.415Z,2.18
2022-12-18T21:26:45.768Z,2.17
2022-12-18T21:29:12.652Z,2.08
2022-12-18T21:31:38.942Z,2.09
2022-12-18T21:34:05.261Z,2.04
2022-12-18T21:36:31.546Z,1.99
2022-12-18T21:38:58.368Z,1.98
2022-12-18T21:41:24.774Z,1.99
2022-12-18T21:43:51.330Z,2.00
2022-12-18T21:46:17.678Z,2.00
2022-12-18T21:48:43.972Z,2.01
2022-12-18T21:51:10.351Z,2.07
2022-12-18T21:53:36.689Z,2.07
2022-12-18T21:56:02.964Z,2.07
2022-12-18T21:58:29.223Z,2.11
2022-12-18T22:00:55.473Z,2.09
2022-12-18T22:03:21.892Z,2.08
2022-12-18T22:05:50.581Z,2.07
2022-12-18T22:08:33.790Z,2.03
2022-12-18T22:11:00.118Z,1.99
2022-12-18T22:13:26.404Z,2.06
2022-12-18T22:15:52.680Z,2.10
2022-12-18T22:18:18.962Z,2.00
2022-12-18T22:20:45.267Z,2.09
2022-12-18T22:23:11.529Z,2.00
2022-12-18T22:25:38.931Z,1.96
2022-12-18T22:28:06.100Z,2.01
2022-12-18T22:30:32.396Z,2.01
2022-12-18T22:32:59.205Z,2.09
2022-12-18T22:35:25.454Z,1.87
2022-12-18T22:37:51.703Z,1.93
2022-12-18T22:40:22.254Z,1.99
2022-12-18T22:42:50.517Z,2.04
2022-12-18T22:45:18.818Z,2.08
2022-12-18T22:47:45.103Z,2.15
2022-12-18T22:50:11.355Z,2.09
2022-12-18T22:52:37.631Z,2.09
2022-12-18T22:55:03.913Z,2.03
2022-12-18T22:57:32.735Z,2.10
2022-12-18T23:00:00.086Z,2.14
2022-12-18T23:02:26.520Z,2.15
2022-12-18T23:04:52.930Z,2.18
2022-12-18T23:07:19.198Z,2.18
2022-12-18T23:09:45.578Z,2.17
2022-12-18T23:12:13.486Z,2.15
2022-12-18T23:14:39.753Z,2.10
2022-12-18T23:17:06.010Z,2.15
2022-12-18T23:19:32.278Z,2.12
2022-12-18T23:21:58.531Z,2.12
2022-12-18T23:24:24.767Z,2.10
2022-12-18T23:26:51.016Z,2.08
2022-12-18T23:29:17.285Z,2.11
2022-12-18T23:31:43.634Z,2.13
2022-12-18T23:34:10.076Z,2.17
2022-12-18T23:36:45.627Z,2.18
2022-12-18T23:39:15.488Z,2.20
2022-12-18T23:41:55.492Z,2.23
2022-12-18T23:44:21.765Z,2.24
2022-12-18T23:46:48.049Z,2.26
2022-12-18T23:49:14.305Z,2.27
2022-12-18T23:51:40.590Z,2.29
2022-12-18T23:54:06.842Z,2.30
2022-12-18T23:56:33.107Z,2.32
2022-12-18T23:58:59.373Z,2.25
